sensor_id;sensor_type;location;lat;lon;timestamp;P1;durP1;ratioP1;P2;durP2;ratioP2
30249;SDS011;17064;47.974;13.826;2022-08-14T00:00:19;4.63;;;2.78;;
30249;SDS011;17064;47.974;13.826;2022-08-14T00:05:40;3.75;;;3.28;;
30249;SDS011;17064;47.974;13.826;2022-08-14T00:11:02;4.32;;;3.80;;
30249;SDS011;17064;47.974;13.826;2022-08-14T00:16:24;5.78;;;3.60;;
30249;SDS011;17064;47.974;13.826;2022-08-14T00:21:45;4.20;;;3.55;;
30249;SDS011;17064;47.974;13.826;2022-08-14T00:27:10;5.50;;;3.58;;
30249;SDS011;17064;47.974;13.826;2022-08-14T00:32:31;4.97;;;3.40;;
30249;SDS011;17064;47.974;13.826;2022-08-14T00:37:52;8.77;;;3.70;;
30249;SDS011;17064;47.974;13.826;2022-08-14T00:43:13;6.75;;;3.42;;
30249;SDS011;17064;47.974;13.826;2022-08-14T00:48:35;3.90;;;2.80;;
30249;SDS011;17064;47.974;13.826;2022-08-14T00:53:57;4.07;;;3.33;;
30249;SDS011;17064;47.974;13.826;2022-08-14T00:59:18;4.20;;;3.13;;
30249;SDS011;17064;47.974;13.826;2022-08-14T01:04:39;7.07;;;4.00;;
30249;SDS011;17064;47.974;13.826;2022-08-14T01:10:02;4.85;;;3.78;;
30249;SDS011;17064;47.974;13.826;2022-08-14T01:15:24;4.75;;;3.92;;
30249;SDS011;17064;47.974;13.826;2022-08-14T01:20:45;5.65;;;4.85;;
30249;SDS011;17064;47.974;13.826;2022-08-14T01:26:26;6.00;;;4.43;;
30249;SDS011;17064;47.974;13.826;2022-08-14T01:31:48;5.17;;;4.40;;
30249;SDS011;17064;47.974;13.826;2022-08-14T01:37:09;7.45;;;4.00;;
30249;SDS011;17064;47.974;13.826;2022-08-14T01:42:30;4.85;;;4.40;;
30249;SDS011;17064;47.974;13.826;2022-08-14T01:47:51;5.93;;;4.03;;
30249;SDS011;17064;47.974;13.826;2022-08-14T01:53:12;5.60;;;4.15;;
30249;SDS011;17064;47.974;13.826;2022-08-14T01:58:33;6.63;;;4.00;;
30249;SDS011;17064;47.974;13.826;2022-08-14T02:03:54;4.10;;;3.70;;
30249;SDS011;17064;47.974;13.826;2022-08-14T02:09:16;4.55;;;3.28;;
30249;SDS011;17064;47.974;13.826;2022-08-14T02:14:38;6.07;;;4.00;;
30249;SDS011;17064;47.974;13.826;2022-08-14T02:19:59;4.47;;;3.80;;
30249;SDS011;17064;47.974;13.826;2022-08-14T02:25:21;4.70;;;3.35;;
30249;SDS011;17064;47.974;13.826;2022-08-14T02:30:43;4.17;;;3.77;;
30249;SDS011;17064;47.974;13.826;2022-08-14T02:36:05;4.97;;;3.55;;
30249;SDS011;17064;47.974;13.826;2022-08-14T02:41:27;5.18;;;3.70;;
30249;SDS011;17064;47.974;13.826;2022-08-14T02:46:49;4.18;;;3.58;;
30249;SDS011;17064;47.974;13.826;2022-08-14T02:57:32;4.18;;;3.22;;
30249;SDS011;17064;47.974;13.826;2022-08-14T03:02:54;5.18;;;3.80;;
30249;SDS011;17064;47.974;13.826;2022-08-14T03:08:15;4.97;;;3.50;;
30249;SDS011;17064;47.974;13.826;2022-08-14T03:13:41;4.55;;;3.78;;
30249;SDS011;17064;47.974;13.826;2022-08-14T03:19:04;4.55;;;4.05;;
30249;SDS011;17064;47.974;13.826;2022-08-14T03:24:29;4.30;;;3.63;;
30249;SDS011;17064;47.974;13.826;2022-08-14T03:29:50;10.27;;;4.28;;
30249;SDS011;17064;47.974;13.826;2022-08-14T03:35:11;13.57;;;4.63;;
30249;SDS011;17064;47.974;13.826;2022-08-14T03:40:32;15.23;;;4.55;;
30249;SDS011;17064;47.974;13.826;2022-08-14T03:45:53;18.33;;;5.53;;
30249;SDS011;17064;47.974;13.826;2022-08-14T03:51:14;11.40;;;4.82;;
30249;SDS011;17064;47.974;13.826;2022-08-14T03:56:36;28.27;;;4.93;;
30249;SDS011;17064;47.974;13.826;2022-08-14T04:01:57;5.05;;;4.35;;
30249;SDS011;17064;47.974;13.826;2022-08-14T04:07:18;8.75;;;4.53;;
30249;SDS011;17064;47.974;13.826;2022-08-14T04:12:40;10.82;;;4.45;;
30249;SDS011;17064;47.974;13.826;2022-08-14T04:18:04;13.82;;;4.50;;
30249;SDS011;17064;47.974;13.826;2022-08-14T04:23:27;8.27;;;4.50;;
30249;SDS011;17064;47.974;13.826;2022-08-14T04:28:48;10.93;;;4.22;;
30249;SDS011;17064;47.974;13.826;2022-08-14T04:34:10;5.05;;;4.43;;
30249;SDS011;17064;47.974;13.826;2022-08-14T04:39:31;9.60;;;4.57;;
30249;SDS011;17064;47.974;13.826;2022-08-14T04:45:10;14.05;;;4.85;;
30249;SDS011;17064;47.974;13.826;2022-08-14T04:50:33;6.83;;;4.83;;
30249;SDS011;17064;47.974;13.826;2022-08-14T04:55:54;13.68;;;6.97;;
30249;SDS011;17064;47.974;13.826;2022-08-14T05:01:15;14.20;;;6.53;;
30249;SDS011;17064;47.974;13.826;2022-08-14T05:06:37;15.30;;;6.10;;
30249;SDS011;17064;47.974;13.826;2022-08-14T05:11:59;8.15;;;5.15;;
30249;SDS011;17064;47.974;13.826;2022-08-14T05:17:20;6.07;;;5.00;;
30249;SDS011;17064;47.974;13.826;2022-08-14T05:22:44;7.38;;;5.05;;
30249;SDS011;17064;47.974;13.826;2022-08-14T05:28:06;11.50;;;5.60;;
30249;SDS011;17064;47.974;13.826;2022-08-14T05:33:28;11.30;;;4.68;;
30249;SDS011;17064;47.974;13.826;2022-08-14T05:38:51;8.80;;;4.57;;
30249;SDS011;17064;47.974;13.826;2022-08-14T05:44:12;6.93;;;4.28;;
30249;SDS011;17064;47.974;13.826;2022-08-14T05:49:33;6.22;;;4.20;;
30249;SDS011;17064;47.974;13.826;2022-08-14T05:54:54;6.13;;;4.50;;
30249;SDS011;17064;47.974;13.826;2022-08-14T06:00:18;8.95;;;4.50;;
30249;SDS011;17064;47.974;13.826;2022-08-14T06:05:44;5.35;;;3.83;;
30249;SDS011;17064;47.974;13.826;2022-08-14T06:11:07;4.00;;;3.40;;
30249;SDS011;17064;47.974;13.826;2022-08-14T06:16:28;6.15;;;3.65;;
30249;SDS011;17064;47.974;13.826;2022-08-14T06:21:50;5.07;;;3.92;;
30249;SDS011;17064;47.974;13.826;2022-08-14T06:27:11;4.22;;;3.28;;
30249;SDS011;17064;47.974;13.826;2022-08-14T06:32:32;3.50;;;3.20;;
30249;SDS011;17064;47.974;13.826;2022-08-14T06:37:55;5.95;;;3.38;;
30249;SDS011;17064;47.974;13.826;2022-08-14T06:43:18;4.22;;;3.08;;
30249;SDS011;17064;47.974;13.826;2022-08-14T06:48:40;4.60;;;3.42;;
30249;SDS011;17064;47.974;13.826;2022-08-14T06:54:01;4.53;;;3.47;;
30249;SDS011;17064;47.974;13.826;2022-08-14T06:59:22;5.28;;;3.67;;
30249;SDS011;17064;47.974;13.826;2022-08-14T07:04:43;10.60;;;4.18;;
30249;SDS011;17064;47.974;13.826;2022-08-14T07:10:22;4.47;;;3.67;;
30249;SDS011;17064;47.974;13.826;2022-08-14T07:15:47;8.73;;;4.40;;
30249;SDS011;17064;47.974;13.826;2022-08-14T07:21:12;7.95;;;4.72;;
30249;SDS011;17064;47.974;13.826;2022-08-14T07:26:35;7.00;;;5.07;;
30249;SDS011;17064;47.974;13.826;2022-08-14T07:31:56;7.30;;;5.13;;
30249;SDS011;17064;47.974;13.826;2022-08-14T07:37:17;11.50;;;5.47;;
30249;SDS011;17064;47.974;13.826;2022-08-14T07:42:38;7.93;;;5.20;;
30249;SDS011;17064;47.974;13.826;2022-08-14T07:47:59;11.05;;;4.75;;
30249;SDS011;17064;47.974;13.826;2022-08-14T07:53:20;6.68;;;4.70;;
30249;SDS011;17064;47.974;13.826;2022-08-14T07:58:42;6.60;;;5.33;;
30249;SDS011;17064;47.974;13.826;2022-08-14T08:04:03;14.75;;;6.18;;
30249;SDS011;17064;47.974;13.826;2022-08-14T08:09:25;11.77;;;5.03;;
30249;SDS011;17064;47.974;13.826;2022-08-14T08:20:14;6.68;;;4.60;;
30249;SDS011;17064;47.974;13.826;2022-08-14T08:25:41;7.70;;;5.28;;
30249;SDS011;17064;47.974;13.826;2022-08-14T08:31:04;7.25;;;5.65;;
30249;SDS011;17064;47.974;13.826;2022-08-14T08:36:26;12.70;;;5.25;;
30249;SDS011;17064;47.974;13.826;2022-08-14T08:41:47;8.40;;;5.37;;
30249;SDS011;17064;47.974;13.826;2022-08-14T08:47:09;14.57;;;6.23;;
30249;SDS011;17064;47.974;13.826;2022-08-14T08:52:30;7.97;;;5.88;;
30249;SDS011;17064;47.974;13.826;2022-08-14T08:57:54;6.70;;;5.50;;
30249;SDS011;17064;47.974;13.826;2022-08-14T09:03:18;8.23;;;5.40;;
30249;SDS011;17064;47.974;13.826;2022-08-14T09:08:44;14.55;;;5.45;;
30249;SDS011;17064;47.974;13.826;2022-08-14T09:14:05;7.55;;;5.13;;
30249;SDS011;17064;47.974;13.826;2022-08-14T09:19:26;6.77;;;5.50;;
30249;SDS011;17064;47.974;13.826;2022-08-14T09:24:47;7.37;;;5.10;;
30249;SDS011;17064;47.974;13.826;2022-08-14T09:30:09;8.50;;;5.10;;
30249;SDS011;17064;47.974;13.826;2022-08-14T09:35:53;8.13;;;4.68;;
30249;SDS011;17064;47.974;13.826;2022-08-14T09:47:53;7.32;;;5.30;;
30249;SDS011;17064;47.974;13.826;2022-08-14T09:54:03;7.25;;;4.38;;
30249;SDS011;17064;47.974;13.826;2022-08-14T09:59:09;33.53;;;6.80;;
30249;SDS011;17064;47.974;13.826;2022-08-14T10:04:33;30.58;;;6.15;;
30249;SDS011;17064;47.974;13.826;2022-08-14T10:09:58;13.43;;;4.63;;
30249;SDS011;17064;47.974;13.826;2022-08-14T10:20:52;18.50;;;5.28;;
30249;SDS011;17064;47.974;13.826;2022-08-14T10:26:18;7.95;;;4.97;;
30249;SDS011;17064;47.974;13.826;2022-08-14T10:31:40;8.20;;;4.80;;
30249;SDS011;17064;47.974;13.826;2022-08-14T10:37:03;5.53;;;4.05;;
30249;SDS011;17064;47.974;13.826;2022-08-14T10:42:36;6.57;;;3.88;;
30249;SDS011;17064;47.974;13.826;2022-08-14T10:47:59;6.95;;;4.55;;
30249;SDS011;17064;47.974;13.826;2022-08-14T10:53:31;16.90;;;5.80;;
30249;SDS011;17064;47.974;13.826;2022-08-14T10:58:59;7.45;;;4.07;;
30249;SDS011;17064;47.974;13.826;2022-08-14T11:04:29;4.32;;;3.65;;
30249;SDS011;17064;47.974;13.826;2022-08-14T11:09:52;43.13;;;6.03;;
30249;SDS011;17064;47.974;13.826;2022-08-14T11:15:19;9.90;;;4.13;;
30249;SDS011;17064;47.974;13.826;2022-08-14T11:20:49;6.25;;;4.45;;
30249;SDS011;17064;47.974;13.826;2022-08-14T11:26:15;6.15;;;4.25;;
30249;SDS011;17064;47.974;13.826;2022-08-14T11:31:43;5.18;;;3.47;;
30249;SDS011;17064;47.974;13.826;2022-08-14T11:42:29;9.20;;;4.00;;
30249;SDS011;17064;47.974;13.826;2022-08-14T11:47:52;5.47;;;4.57;;
30249;SDS011;17064;47.974;13.826;2022-08-14T11:53:17;4.65;;;3.88;;
30249;SDS011;17064;47.974;13.826;2022-08-14T11:58:52;13.63;;;3.90;;
30249;SDS011;17064;47.974;13.826;2022-08-14T12:04:14;4.90;;;3.95;;
30249;SDS011;17064;47.974;13.826;2022-08-14T12:09:37;8.30;;;3.72;;
30249;SDS011;17064;47.974;13.826;2022-08-14T12:14:59;11.43;;;3.72;;
30249;SDS011;17064;47.974;13.826;2022-08-14T12:20:27;11.52;;;4.18;;
30249;SDS011;17064;47.974;13.826;2022-08-14T12:26:02;9.10;;;4.13;;
30249;SDS011;17064;47.974;13.826;2022-08-14T12:31:28;4.03;;;3.63;;
30249;SDS011;17064;47.974;13.826;2022-08-14T12:36:49;5.13;;;4.22;;
30249;SDS011;17064;47.974;13.826;2022-08-14T12:42:32;7.35;;;3.67;;
30249;SDS011;17064;47.974;13.826;2022-08-14T12:47:58;6.13;;;3.75;;
30249;SDS011;17064;47.974;13.826;2022-08-14T12:53:31;4.10;;;3.50;;
30249;SDS011;17064;47.974;13.826;2022-08-14T12:58:55;11.95;;;3.90;;
30249;SDS011;17064;47.974;13.826;2022-08-14T13:04:17;15.07;;;4.40;;
30249;SDS011;17064;47.974;13.826;2022-08-14T13:09:40;5.22;;;3.78;;
30249;SDS011;17064;47.974;13.826;2022-08-14T13:15:02;5.57;;;3.75;;
30249;SDS011;17064;47.974;13.826;2022-08-14T13:20:25;8.18;;;3.78;;
30249;SDS011;17064;47.974;13.826;2022-08-14T13:25:48;16.80;;;4.32;;
30249;SDS011;17064;47.974;13.826;2022-08-14T13:31:12;5.78;;;3.25;;
30249;SDS011;17064;47.974;13.826;2022-08-14T13:36:36;5.32;;;3.92;;
30249;SDS011;17064;47.974;13.826;2022-08-14T13:41:57;7.47;;;3.88;;
30249;SDS011;17064;47.974;13.826;2022-08-14T13:47:24;219.65;;;16.35;;
30249;SDS011;17064;47.974;13.826;2022-08-14T13:52:50;8.60;;;4.13;;
30249;SDS011;17064;47.974;13.826;2022-08-14T13:58:14;19.60;;;5.38;;
30249;SDS011;17064;47.974;13.826;2022-08-14T14:03:36;4.30;;;3.90;;
30249;SDS011;17064;47.974;13.826;2022-08-14T14:09:04;4.35;;;3.95;;
30249;SDS011;17064;47.974;13.826;2022-08-14T14:14:27;14.65;;;4.22;;
30249;SDS011;17064;47.974;13.826;2022-08-14T14:19:49;4.50;;;3.45;;
30249;SDS011;17064;47.974;13.826;2022-08-14T14:25:12;4.57;;;3.75;;
30249;SDS011;17064;47.974;13.826;2022-08-14T14:30:35;6.10;;;3.75;;
30249;SDS011;17064;47.974;13.826;2022-08-14T14:36:01;7.25;;;4.00;;
30249;SDS011;17064;47.974;13.826;2022-08-14T14:41:23;7.38;;;3.90;;
30249;SDS011;17064;47.974;13.826;2022-08-14T14:46:46;10.45;;;4.78;;
30249;SDS011;17064;47.974;13.826;2022-08-14T14:52:09;29.02;;;5.63;;
30249;SDS011;17064;47.974;13.826;2022-08-14T14:57:31;39.20;;;6.20;;
30249;SDS011;17064;47.974;13.826;2022-08-14T15:02:52;91.00;;;9.40;;
30249;SDS011;17064;47.974;13.826;2022-08-14T15:08:14;54.55;;;7.63;;
30249;SDS011;17064;47.974;13.826;2022-08-14T15:13:35;11.70;;;5.30;;
30249;SDS011;17064;47.974;13.826;2022-08-14T15:18:56;5.50;;;4.90;;
30249;SDS011;17064;47.974;13.826;2022-08-14T15:24:18;15.10;;;5.47;;
30249;SDS011;17064;47.974;13.826;2022-08-14T15:29:39;8.03;;;4.70;;
30249;SDS011;17064;47.974;13.826;2022-08-14T15:35:00;11.55;;;4.93;;
30249;SDS011;17064;47.974;13.826;2022-08-14T15:40:21;8.73;;;4.83;;
30249;SDS011;17064;47.974;13.826;2022-08-14T15:45:43;6.88;;;4.93;;
30249;SDS011;17064;47.974;13.826;2022-08-14T15:51:04;9.50;;;5.05;;
30249;SDS011;17064;47.974;13.826;2022-08-14T15:56:25;7.07;;;5.03;;
30249;SDS011;17064;47.974;13.826;2022-08-14T16:01:47;6.68;;;4.82;;
30249;SDS011;17064;47.974;13.826;2022-08-14T16:07:10;5.20;;;4.50;;
30249;SDS011;17064;47.974;13.826;2022-08-14T16:12:31;5.90;;;5.07;;
30249;SDS011;17064;47.974;13.826;2022-08-14T16:17:52;5.32;;;4.82;;
30249;SDS011;17064;47.974;13.826;2022-08-14T16:23:14;5.87;;;4.73;;
30249;SDS011;17064;47.974;13.826;2022-08-14T16:28:37;13.82;;;5.97;;
30249;SDS011;17064;47.974;13.826;2022-08-14T16:33:58;6.15;;;5.13;;
30249;SDS011;17064;47.974;13.826;2022-08-14T16:39:20;5.25;;;4.75;;
30249;SDS011;17064;47.974;13.826;2022-08-14T16:44:42;7.57;;;5.03;;
30249;SDS011;17064;47.974;13.826;2022-08-14T16:50:06;10.18;;;5.00;;
30249;SDS011;17064;47.974;13.826;2022-08-14T16:55:31;6.57;;;5.22;;
30249;SDS011;17064;47.974;13.826;2022-08-14T17:00:52;10.07;;;5.77;;
30249;SDS011;17064;47.974;13.826;2022-08-14T17:06:13;5.28;;;4.75;;
30249;SDS011;17064;47.974;13.826;2022-08-14T17:17:42;9.90;;;5.40;;
30249;SDS011;17064;47.974;13.826;2022-08-14T17:23:08;15.80;;;5.95;;
30249;SDS011;17064;47.974;13.826;2022-08-14T17:33:51;9.18;;;5.13;;
30249;SDS011;17064;47.974;13.826;2022-08-14T17:39:13;10.20;;;4.90;;
30249;SDS011;17064;47.974;13.826;2022-08-14T17:44:39;6.72;;;5.30;;
30249;SDS011;17064;47.974;13.826;2022-08-14T17:50:01;8.80;;;5.68;;
30249;SDS011;17064;47.974;13.826;2022-08-14T17:55:23;7.78;;;6.28;;
30249;SDS011;17064;47.974;13.826;2022-08-14T18:00:45;9.43;;;5.60;;
30249;SDS011;17064;47.974;13.826;2022-08-14T18:06:07;8.52;;;5.55;;
30249;SDS011;17064;47.974;13.826;2022-08-14T18:11:29;17.27;;;6.57;;
30249;SDS011;17064;47.974;13.826;2022-08-14T18:22:15;8.82;;;5.68;;
30249;SDS011;17064;47.974;13.826;2022-08-14T18:32:59;8.65;;;5.63;;
30249;SDS011;17064;47.974;13.826;2022-08-14T18:38:34;22.50;;;7.85;;
30249;SDS011;17064;47.974;13.826;2022-08-14T18:43:55;19.42;;;6.65;;
30249;SDS011;17064;47.974;13.826;2022-08-14T18:49:16;8.60;;;5.95;;
30249;SDS011;17064;47.974;13.826;2022-08-14T18:59:59;8.45;;;5.82;;
30249;SDS011;17064;47.974;13.826;2022-08-14T19:11:02;6.97;;;5.90;;
30249;SDS011;17064;47.974;13.826;2022-08-14T19:16:34;7.75;;;6.20;;
30249;SDS011;17064;47.974;13.826;2022-08-14T19:21:56;7.97;;;6.00;;
30249;SDS011;17064;47.974;13.826;2022-08-14T19:27:18;7.63;;;6.53;;
30249;SDS011;17064;47.974;13.826;2022-08-14T19:32:44;9.45;;;6.68;;
30249;SDS011;17064;47.974;13.826;2022-08-14T19:38:05;9.45;;;6.38;;
30249;SDS011;17064;47.974;13.826;2022-08-14T19:43:28;7.45;;;6.10;;
30249;SDS011;17064;47.974;13.826;2022-08-14T19:48:52;8.57;;;6.63;;
30249;SDS011;17064;47.974;13.826;2022-08-14T19:54:14;10.02;;;6.75;;
30249;SDS011;17064;47.974;13.826;2022-08-14T19:59:35;9.05;;;6.82;;
30249;SDS011;17064;47.974;13.826;2022-08-14T20:05:01;8.52;;;6.55;;
30249;SDS011;17064;47.974;13.826;2022-08-14T20:10:26;8.93;;;7.40;;
30249;SDS011;17064;47.974;13.826;2022-08-14T20:15:47;7.68;;;6.15;;
30249;SDS011;17064;47.974;13.826;2022-08-14T20:21:08;8.52;;;6.63;;
30249;SDS011;17064;47.974;13.826;2022-08-14T20:26:29;9.70;;;7.20;;
30249;SDS011;17064;47.974;13.826;2022-08-14T20:31:51;9.40;;;7.30;;
30249;SDS011;17064;47.974;13.826;2022-08-14T20:37:13;9.40;;;7.00;;
30249;SDS011;17064;47.974;13.826;2022-08-14T20:42:34;8.23;;;6.88;;
30249;SDS011;17064;47.974;13.826;2022-08-14T20:48:18;9.98;;;7.60;;
30249;SDS011;17064;47.974;13.826;2022-08-14T20:53:49;14.38;;;9.88;;
30249;SDS011;17064;47.974;13.826;2022-08-14T20:59:21;14.75;;;10.40;;
30249;SDS011;17064;47.974;13.826;2022-08-14T21:04:52;14.00;;;9.40;;
30249;SDS011;17064;47.974;13.826;2022-08-14T21:10:20;11.80;;;8.88;;
30249;SDS011;17064;47.974;13.826;2022-08-14T21:15:45;13.55;;;9.70;;
30249;SDS011;17064;47.974;13.826;2022-08-14T21:21:07;11.93;;;7.97;;
30249;SDS011;17064;47.974;13.826;2022-08-14T21:26:30;11.82;;;8.45;;
30249;SDS011;17064;47.974;13.826;2022-08-14T21:31:52;12.27;;;8.30;;
30249;SDS011;17064;47.974;13.826;2022-08-14T21:37:13;12.23;;;8.85;;
30249;SDS011;17064;47.974;13.826;2022-08-14T21:42:34;11.20;;;8.82;;
30249;SDS011;17064;47.974;13.826;2022-08-14T21:47:55;10.65;;;9.02;;
30249;SDS011;17064;47.974;13.826;2022-08-14T21:53:16;11.05;;;8.88;;
30249;SDS011;17064;47.974;13.826;2022-08-14T22:04:00;9.65;;;8.07;;
30249;SDS011;17064;47.974;13.826;2022-08-14T22:09:21;11.85;;;8.75;;
30249;SDS011;17064;47.974;13.826;2022-08-14T22:14:44;10.07;;;8.20;;
30249;SDS011;17064;47.974;13.826;2022-08-14T22:20:06;12.15;;;9.05;;
30249;SDS011;17064;47.974;13.826;2022-08-14T22:25:32;11.10;;;8.80;;
30249;SDS011;17064;47.974;13.826;2022-08-14T22:30:55;11.45;;;8.95;;
30249;SDS011;17064;47.974;13.826;2022-08-14T22:36:16;11.48;;;9.25;;
30249;SDS011;17064;47.974;13.826;2022-08-14T22:41:55;11.88;;;8.80;;
30249;SDS011;17064;47.974;13.826;2022-08-14T22:47:17;10.02;;;8.82;;
30249;SDS011;17064;47.974;13.826;2022-08-14T22:52:39;11.75;;;8.88;;
30249;SDS011;17064;47.974;13.826;2022-08-14T22:58:00;11.63;;;8.80;;
